Terminal Aerodrome Forecast
Issued by NWS Pueblo, CO

Home | Current Version | Previous Version | Text Only | Print | Product List | Glossary On
Versions: 1 2 3 4 5 6 7 8 9 10 11 12 13 14 15 16 17 18 19
000
FTUS45 KPUB 231907 AAA
TAFPUB
TAF AMD
KPUB 231907Z 2319/2418 20020G30KT P6SM FEW100
     FM240100 22008KT P6SM SCT050 BKN100
     FM240600 28011KT P6SM SCT150
     FM241200 29011KT P6SM FEW150=

USA.gov is the U.S. government's official web portal to all federal, state and local government web resources and services.